Time;durP1;ratioP1;P1;durP2;ratioP2;P2;SDS_P1;SDS_P2;PMS_P1;PMS_P2;Temp;Humidity;BMP_temperature;BMP_pressure;BME280_temperature;BME280_humidity;BME280_pressure;Samples;Min_cycle;Max_cycle;Signal;HPM_P1;HPM_P2
2022/09/25 00:01:31;;;;;;;;;;;;;;;-144.99;100.00;52291.16;5091224;28;20005;-79
2022/09/25 00:03:57;;;;;;;;;;;;;;;-144.99;100.00;52325.81;5091479;28;20426;-81
2022/09/25 00:06:26;;;;;;;;;;;;;;;-144.99;100.00;52325.81;5090581;28;20214;-80
2022/09/25 00:08:53;;;;;;;;;;;;;;;-144.99;100.00;52342.09;5088311;28;19964;-80
2022/09/25 00:11:20;;;;;;;;;;;;;;;-144.99;100.00;52317.66;5088723;28;19955;-77
2022/09/25 00:13:47;;;;;;;;;;;;;;;-144.99;100.00;52303.38;5085675;28;20443;-81
2022/09/25 00:16:14;;;;;;;;;;;;;;;-144.99;100.00;52276.88;5082412;28;19936;-81
2022/09/25 00:21:30;;;;;;;;;;;;;;;-144.99;100.00;52325.81;5090342;28;19938;-77
2022/09/25 00:23:56;;;;;;;;;;;;;;;-144.99;100.00;52313.56;5088959;28;19950;-80
2022/09/25 00:26:22;;;;;;;;;;;;;;;-144.99;100.00;52248.34;5088368;28;20025;-79
2022/09/25 00:28:49;;;;;;;;;;;;;;;-144.99;100.00;52313.56;5086994;28;19969;-78
2022/09/25 00:31:18;;;;;;;;;;;;;;;-144.99;100.00;52309.50;5080168;28;20084;-75
2022/09/25 00:33:45;;;;;;;;;;;;;;;-144.99;100.00;52305.41;4733963;28;9999905;-79
2022/09/25 00:36:11;;;;;;;;;;;;;;;-144.99;100.00;52295.22;5080644;28;20030;-77
2022/09/25 00:38:39;;;;;;;;;;;;;;;-144.99;100.00;52333.94;5059465;28;19936;-80
2022/09/25 00:41:06;;;;;;;;;;;;;;;-144.99;100.00;52297.25;5058786;28;19948;-78
2022/09/25 00:43:37;;;;;;;;;;;;;;;-144.99;100.00;52289.13;5075783;28;19955;-79
2022/09/25 00:46:05;;;;;;;;;;;;;;;-144.99;100.00;52289.13;5076999;28;19956;-77
2022/09/25 00:48:31;;;;;;;;;;;;;;;-144.99;100.00;52315.59;5081719;28;19963;-78
2022/09/25 00:50:59;;;;;;;;;;;;;;;-144.99;100.00;52342.09;5079237;28;20020;-79
2022/09/25 00:53:27;;;;;;;;;;;;;;;-144.99;100.00;52319.69;5080969;28;19946;-76
2022/09/25 00:55:56;;;;;;;;;;;;;;;-144.99;100.00;52305.41;5069037;28;20004;-79
2022/09/25 00:58:24;;;;;;;;;;;;;;;-144.99;100.00;52321.72;5075333;28;19965;-78
2022/09/25 01:00:50;;;;;;;;;;;;;;;-144.99;100.00;52293.19;5074281;28;19951;-80
2022/09/25 01:03:17;;;;;;;;;;;;;;;-144.99;100.00;52313.56;5062269;28;19951;-80
2022/09/25 01:05:45;;;;;;;;;;;;;;;-144.99;100.00;52297.25;5068717;28;19959;-78
2022/09/25 01:08:13;;;;;;;;;;;;;;;-144.99;100.00;52289.13;5067224;28;20330;-77
2022/09/25 01:10:40;;;;;;;;;;;;;;;-144.99;100.00;52338.03;5068928;28;19950;-79
2022/09/25 01:13:08;;;;;;;;;;;;;;;-144.99;100.00;52305.41;5070875;28;19944;-79
2022/09/25 01:15:38;;;;;;;;;;;;;;;-144.99;100.00;52321.72;5070148;28;20416;-79
2022/09/25 01:18:11;;;;;;;;;;;;;;;-144.99;100.00;52268.72;5068507;28;19964;-79
2022/09/25 01:20:48;;;;;;;;;;;;;;;-144.99;100.00;52329.88;5063334;28;19946;-78
2022/09/25 01:23:17;;;;;;;;;;;;;;;-144.99;100.00;52315.59;5073991;28;19942;-79
2022/09/25 01:25:51;;;;;;;;;;;;;;;-144.99;100.00;52319.69;5075121;28;19976;-79
2022/09/25 01:28:29;;;;;;;;;;;;;;;-144.99;100.00;52317.66;5073642;28;19965;-76
2022/09/25 01:30:59;;;;;;;;;;;;;;;-144.99;100.00;52301.34;5071861;28;19948;-78
2022/09/25 01:33:31;;;;;;;;;;;;;;;-144.99;100.00;52287.06;5069176;28;19950;-79
2022/09/25 01:36:00;;;;;;;;;;;;;;;-144.99;100.00;52305.41;5053038;28;19941;-79
2022/09/25 01:38:31;;;;;;;;;;;;;;;-144.99;100.00;52317.66;5060554;28;19987;-79
2022/09/25 01:41:01;;;;;;;;;;;;;;;-144.99;100.00;52307.47;5071008;28;20555;-78
2022/09/25 01:43:31;;;;;;;;;;;;;;;-144.99;100.00;52317.66;5065038;28;19947;-78
2022/09/25 01:46:01;;;;;;;;;;;;;;;-144.99;100.00;52301.34;5068416;28;20032;-79
2022/09/25 01:48:28;;;;;;;;;;;;;;;-144.99;100.00;52309.50;5071413;28;19959;-79
2022/09/25 01:50:57;;;;;;;;;;;;;;;-144.99;100.00;52305.41;5069944;28;20344;-79
2022/09/25 01:53:27;;;;;;;;;;;;;;;-144.99;100.00;52333.94;5069832;28;19971;-79
2022/09/25 01:55:56;;;;;;;;;;;;;;;-144.99;100.00;52309.50;5059427;28;20350;-76
2022/09/25 01:58:25;;;;;;;;;;;;;;;-144.99;100.00;52325.81;5072929;28;19959;-77
2022/09/25 02:00:54;;;;;;;;;;;;;;;-144.99;100.00;52317.66;5072973;28;19992;-79
2022/09/25 02:03:25;;;;;;;;;;;;;;;-144.99;100.00;52346.19;5070450;28;19982;-78
2022/09/25 02:05:53;;;;;;;;;;;;;;;-144.99;100.00;52317.66;5057471;28;19960;-78
2022/09/25 02:08:22;;;;;;;;;;;;;;;-144.99;100.00;52289.13;5068680;28;19964;-78
2022/09/25 02:10:52;;;;;;;;;;;;;;;-144.99;100.00;52260.56;5071396;28;19965;-79
2022/09/25 02:13:19;;;;;;;;;;;;;;;-144.99;100.00;52329.88;5057041;28;19994;-78
2022/09/25 02:15:47;;;;;;;;;;;;;;;-144.99;100.00;52327.84;5072445;28;19944;-77
2022/09/25 02:21:02;;;;;;;;;;;;;;;-144.99;100.00;52305.41;5060952;28;19952;-77
2022/09/25 02:23:33;;;;;;;;;;;;;;;-144.99;100.00;52325.81;5053588;28;19948;-78
2022/09/25 02:26:04;;;;;;;;;;;;;;;-144.99;100.00;52309.50;5072428;28;19967;-78
2022/09/25 02:28:30;;;;;;;;;;;;;;;-144.99;100.00;52325.81;5073198;28;19991;-79
2022/09/25 02:30:59;;;;;;;;;;;;;;;-144.99;100.00;52313.56;5071009;28;19932;-78
2022/09/25 02:33:26;;;;;;;;;;;;;;;-144.99;100.00;52285.03;5070740;28;19962;-78
2022/09/25 02:35:52;;;;;;;;;;;;;;;-144.99;100.00;52338.03;5072958;28;19984;-79
2022/09/25 02:38:20;;;;;;;;;;;;;;;-144.99;100.00;52338.03;5057767;28;19968;-80
2022/09/25 02:40:52;;;;;;;;;;;;;;;-144.99;100.00;52301.34;5062010;28;19954;-78
2022/09/25 02:43:25;;;;;;;;;;;;;;;-144.99;100.00;52325.81;5066286;28;19968;-78
2022/09/25 02:46:01;;;;;;;;;;;;;;;-144.99;100.00;52366.56;5070795;28;19956;-79
2022/09/25 02:48:33;;;;;;;;;;;;;;;-144.99;100.00;52305.41;5062003;28;20335;-79
2022/09/25 02:51:04;;;;;;;;;;;;;;;-144.99;100.00;52301.34;5088253;28;19958;-80
2022/09/25 02:53:35;;;;;;;;;;;;;;;-144.99;100.00;52305.41;5083048;28;19929;-76
2022/09/25 02:56:03;;;;;;;;;;;;;;;-144.99;100.00;52321.72;5073094;28;19956;-79
2022/09/25 02:58:33;;;;;;;;;;;;;;;-144.99;100.00;52368.59;5073328;28;19971;-76
2022/09/25 03:01:01;;;;;;;;;;;;;;;-144.99;100.00;52329.88;5073606;28;19943;-78
2022/09/25 03:03:28;;;;;;;;;;;;;;;-144.99;100.00;52309.50;5072188;28;19946;-79
2022/09/25 03:05:55;;;;;;;;;;;;;;;-144.99;100.00;52317.66;5075593;28;19969;-77
2022/09/25 03:08:37;;;;;;;;;;;;;;;-144.99;100.00;52327.84;5074953;28;19971;-79
2022/09/25 03:11:06;;;;;;;;;;;;;;;-144.99;100.00;52305.41;5072370;28;19949;-78
2022/09/25 03:13:33;;;;;;;;;;;;;;;-144.99;100.00;52350.25;5070807;28;20053;-77
2022/09/25 03:16:01;;;;;;;;;;;;;;;-144.99;100.00;52305.41;5072186;28;19946;-75
2022/09/25 03:18:28;;;;;;;;;;;;;;;-144.99;100.00;52321.72;5069197;28;19966;-79
2022/09/25 03:20:54;;;;;;;;;;;;;;;-144.99;100.00;52321.72;5069031;28;20006;-79
2022/09/25 03:23:21;;;;;;;;;;;;;;;-144.99;100.00;52305.41;5067189;28;20045;-78
2022/09/25 03:25:47;;;;;;;;;;;;;;;-144.99;100.00;52317.66;5068922;28;20423;-79
2022/09/25 03:28:15;;;;;;;;;;;;;;;-144.99;100.00;52338.03;5068908;28;19975;-79
2022/09/25 03:30:42;;;;;;;;;;;;;;;-144.99;100.00;52293.19;5068858;28;20335;-77
2022/09/25 03:33:09;;;;;;;;;;;;;;;-144.99;100.00;52362.50;5066435;28;20116;-79
2022/09/25 03:35:35;;;;;;;;;;;;;;;-144.99;100.00;52321.72;5069363;28;19950;-79
2022/09/25 03:38:02;;;;;;;;;;;;;;;-144.99;100.00;52331.91;5063887;28;19963;-76
2022/09/25 03:40:28;;;;;;;;;;;;;;;-144.99;100.00;52321.72;5064866;28;19942;-81
2022/09/25 03:42:55;;;;;;;;;;;;;;;-144.99;100.00;52297.25;5056799;28;20872;-79
2022/09/25 03:45:22;;;;;;;;;;;;;;;-144.99;100.00;52321.72;5069413;28;19935;-79
2022/09/25 03:47:48;;;;;;;;;;;;;;;-144.99;100.00;52297.25;5056328;28;19963;-79
2022/09/25 03:50:15;;;;;;;;;;;;;;;-144.99;100.00;52317.66;5072705;28;19958;-79
2022/09/25 03:52:41;;;;;;;;;;;;;;;-144.99;100.00;52342.09;5072853;28;19950;-77
2022/09/25 03:55:10;;;;;;;;;;;;;;;-144.99;100.00;52350.25;5075258;28;19939;-76
2022/09/25 03:57:37;;;;;;;;;;;;;;;-144.99;100.00;52346.19;5061971;28;20027;-79
2022/09/25 04:00:04;;;;;;;;;;;;;;;-144.99;100.00;52342.09;5075791;28;20522;-79
2022/09/25 04:02:32;;;;;;;;;;;;;;;-144.99;100.00;52338.03;5072962;28;20029;-79
2022/09/25 04:04:59;;;;;;;;;;;;;;;-144.99;100.00;52350.25;5071395;28;20435;-79
2022/09/25 04:07:26;;;;;;;;;;;;;;;-144.99;100.00;52358.41;5069362;28;19972;-79
2022/09/25 04:09:52;;;;;;;;;;;;;;;-144.99;100.00;52325.81;5104684;22;19947;-75
2022/09/25 04:12:19;;;;;;;;;;;;;;;-144.99;100.00;52301.34;5110686;28;19926;-74
2022/09/25 04:14:45;;;;;;;;;;;;;;;-144.99;100.00;52397.13;5113820;28;19945;-74
2022/09/25 04:17:12;;;;;;;;;;;;;;;-144.99;100.00;52342.09;5110901;28;19932;-76
2022/09/25 04:19:39;;;;;;;;;;;;;;;-144.99;100.00;52321.72;5106275;28;19984;-75
2022/09/25 04:22:06;;;;;;;;;;;;;;;-144.99;100.00;52362.50;5113233;28;19932;-75
2022/09/25 04:24:51;;;;;;;;;;;;;;;-144.99;100.00;52344.16;5112661;28;20014;-75
2022/09/25 04:27:19;;;;;;;;;;;;;;;-144.99;100.00;52329.88;5113863;28;19953;-75
2022/09/25 04:29:46;;;;;;;;;;;;;;;-144.99;100.00;52350.25;5113583;28;19912;-75
2022/09/25 04:34:57;;;;;;;;;;;;;;;-144.99;100.00;52329.88;5113050;28;19933;-74
2022/09/25 04:37:25;;;;;;;;;;;;;;;-144.99;100.00;52358.41;5112742;28;19938;-74
2022/09/25 04:39:51;;;;;;;;;;;;;;;-144.99;100.00;52329.88;5108944;28;19951;-73
2022/09/25 04:42:23;;;;;;;;;;;;;;;-144.99;100.00;52297.25;5105666;28;19946;-75
2022/09/25 04:44:50;;;;;;;;;;;;;;;-144.99;100.00;52311.53;5096681;28;19945;-74
2022/09/25 04:47:16;;;;;;;;;;;;;;;-144.99;100.00;52356.38;5094059;28;19958;-72
2022/09/25 04:49:43;;;;;;;;;;;;;;;-144.99;100.00;52329.88;5105095;28;19947;-71
2022/09/25 04:52:11;;;;;;;;;;;;;;;-144.99;100.00;52354.34;5095151;28;19927;-71
2022/09/25 04:54:37;;;;;;;;;;;;;;;-144.99;100.00;52325.81;5106274;28;19959;-72
2022/09/25 04:57:04;;;;;;;;;;;;;;;-144.99;100.00;52350.25;5107329;28;20044;-71
2022/09/25 04:59:31;;;;;;;;;;;;;;;-144.99;100.00;52372.69;5114282;28;20012;-72
2022/09/25 05:01:57;;;;;;;;;;;;;;;-144.99;100.00;52338.03;5109329;28;20474;-72
2022/09/25 05:04:24;;;;;;;;;;;;;;;-144.99;100.00;52317.66;5095491;28;19948;-72
2022/09/25 05:06:50;;;;;;;;;;;;;;;-144.99;100.00;52325.81;5080796;28;19962;-72
2022/09/25 05:09:18;;;;;;;;;;;;;;;-144.99;100.00;52305.41;5085947;28;20016;-72
2022/09/25 05:11:45;;;;;;;;;;;;;;;-144.99;100.00;52307.47;5087405;28;20332;-75
2022/09/25 05:14:12;;;;;;;;;;;;;;;-144.99;100.00;52333.94;5088737;28;20042;-75
2022/09/25 05:16:38;;;;;;;;;;;;;;;-144.99;100.00;52293.19;5089563;28;19947;-76
2022/09/25 05:19:05;;;;;;;;;;;;;;;-144.99;100.00;52350.25;5089604;28;19960;-76
2022/09/25 05:21:32;;;;;;;;;;;;;;;-144.99;100.00;52321.72;5089327;28;19927;-75
2022/09/25 05:23:59;;;;;;;;;;;;;;;-144.99;100.00;52325.81;5088783;28;19938;-76
2022/09/25 05:26:28;;;;;;;;;;;;;;;-144.99;100.00;52317.66;5090455;28;19961;-76
2022/09/25 05:28:54;;;;;;;;;;;;;;;-144.99;100.00;52321.72;5089392;28;20021;-75
2022/09/25 05:31:21;;;;;;;;;;;;;;;-144.99;100.00;52350.25;5086793;28;19946;-74
2022/09/25 05:33:47;;;;;;;;;;;;;;;-144.99;100.00;52311.53;5088267;28;20330;-75
2022/09/25 05:36:16;;;;;;;;;;;;;;;-144.99;100.00;52299.31;5093721;28;19957;-74
2022/09/25 05:38:42;;;;;;;;;;;;;;;-144.99;100.00;52321.72;5078614;28;20421;-73
2022/09/25 05:41:09;;;;;;;;;;;;;;;-144.99;100.00;52333.94;5077201;28;20034;-74
2022/09/25 05:43:40;;;;;;;;;;;;;;;-144.99;100.00;52370.63;5078904;28;19943;-75
2022/09/25 05:46:06;;;;;;;;;;;;;;;-144.99;100.00;52317.66;5071352;28;20391;-74
2022/09/25 05:48:33;;;;;;;;;;;;;;;-144.99;100.00;52321.72;5079174;28;19975;-74
2022/09/25 05:50:59;;;;;;;;;;;;;;;-144.99;100.00;52362.50;5081160;28;19957;-74
2022/09/25 05:53:26;;;;;;;;;;;;;;;-144.99;100.00;52305.41;5076203;28;19954;-74
2022/09/25 05:55:53;;;;;;;;;;;;;;;-144.99;100.00;52321.72;5089240;28;19961;-74
2022/09/25 05:58:20;;;;;;;;;;;;;;;-144.99;100.00;52370.63;5090866;28;19964;-75
2022/09/25 06:00:49;;;;;;;;;;;;;;;-144.99;100.00;52354.34;5089520;28;19969;-75
2022/09/25 06:03:15;;;;;;;;;;;;;;;-144.99;100.00;52342.09;5088632;28;19991;-76
2022/09/25 06:05:43;;;;;;;;;;;;;;;-144.99;100.00;52305.41;5090048;28;20425;-73
2022/09/25 06:08:10;;;;;;;;;;;;;;;-144.99;100.00;52317.66;5087768;28;20374;-73
2022/09/25 06:10:36;;;;;;;;;;;;;;;-144.99;100.00;52301.34;5089902;28;19948;-73
2022/09/25 06:13:04;;;;;;;;;;;;;;;-144.99;100.00;52315.59;5088761;28;20420;-74
2022/09/25 06:15:36;;;;;;;;;;;;;;;-144.99;100.00;52338.03;5090570;28;19948;-74
2022/09/25 06:18:05;;;;;;;;;;;;;;;-144.99;100.00;52303.38;5087255;28;19938;-71
2022/09/25 06:20:32;;;;;;;;;;;;;;;-144.99;100.00;52297.25;5087569;28;20214;-73
2022/09/25 06:22:59;;;;;;;;;;;;;;;-144.99;100.00;52370.63;5084474;28;19949;-71
2022/09/25 06:25:26;;;;;;;;;;;;;;;-144.99;100.00;52342.09;5088162;28;20812;-72
2022/09/25 06:27:53;;;;;;;;;;;;;;;-144.99;100.00;52295.22;5091102;28;19964;-71
2022/09/25 06:30:20;;;;;;;;;;;;;;;-144.99;100.00;52338.03;5100845;28;19950;-72
2022/09/25 06:32:47;;;;;;;;;;;;;;;-144.99;100.00;52370.63;5106725;28;19940;-72
2022/09/25 06:35:15;;;;;;;;;;;;;;;-144.99;100.00;52309.50;5114796;28;19938;-74
2022/09/25 06:37:42;;;;;;;;;;;;;;;-144.99;100.00;52329.88;5105434;28;19959;-71
2022/09/25 06:40:09;;;;;;;;;;;;;;;-144.99;100.00;52364.53;5077798;28;19972;-73
2022/09/25 06:42:35;;;;;;;;;;;;;;;-144.99;100.00;52321.72;5093047;28;19949;-73
2022/09/25 06:45:02;;;;;;;;;;;;;;;-144.99;100.00;52338.03;5086202;28;19941;-72
2022/09/25 06:47:28;;;;;;;;;;;;;;;-144.99;100.00;52350.25;5084167;28;19983;-72
2022/09/25 06:49:54;;;;;;;;;;;;;;;-144.99;100.00;52346.19;5097531;28;19967;-73
2022/09/25 06:52:22;;;;;;;;;;;;;;;-144.99;100.00;52293.19;5085514;28;19949;-74
2022/09/25 06:54:48;;;;;;;;;;;;;;;-144.99;100.00;52333.94;5101904;28;19938;-79
2022/09/25 06:57:15;;;;;;;;;;;;;;;-144.99;100.00;52350.25;5107597;28;19944;-76
2022/09/25 06:59:41;;;;;;;;;;;;;;;-144.99;100.00;52336.00;5107122;28;19963;-75
2022/09/25 07:04:50;;;;;;;;;;;;;;;-144.99;100.00;52289.13;5103845;28;19928;-74
2022/09/25 07:07:19;;;;;;;;;;;;;;;-144.99;100.00;52352.28;5096653;28;19965;-74
2022/09/25 07:09:47;;;;;;;;;;;;;;;-144.99;100.00;52342.09;5095200;28;20226;-74
2022/09/25 07:12:14;;;;;;;;;;;;;;;-144.99;100.00;52346.19;5092738;28;19946;-75
2022/09/25 07:14:42;;;;;;;;;;;;;;;-144.99;100.00;52342.09;5091803;28;19973;-74
2022/09/25 07:17:09;;;;;;;;;;;;;;;-144.99;100.00;52338.03;5092161;28;19945;-74
2022/09/25 07:19:35;;;;;;;;;;;;;;;-144.99;100.00;52319.69;5090472;28;19963;-74
2022/09/25 07:22:03;;;;;;;;;;;;;;;-144.99;100.00;52285.03;5089866;28;20513;-75
2022/09/25 07:24:30;;;;;;;;;;;;;;;-144.99;100.00;52336.00;5089515;28;20369;-73
2022/09/25 07:26:57;;;;;;;;;;;;;;;-144.99;100.00;52362.50;5091594;28;19961;-75
2022/09/25 07:29:24;;;;;;;;;;;;;;;-144.99;100.00;52301.34;5091135;28;20420;-74
2022/09/25 07:31:50;;;;;;;;;;;;;;;-144.99;100.00;52333.94;5091350;28;20118;-74
2022/09/25 07:34:17;;;;;;;;;;;;;;;-144.99;100.00;52293.19;5111218;28;19962;-75
2022/09/25 07:36:43;;;;;;;;;;;;;;;-144.99;100.00;52313.56;5104159;28;20530;-71
2022/09/25 07:39:09;;;;;;;;;;;;;;;-144.99;100.00;52285.03;5067096;28;20025;-74
2022/09/25 07:41:36;;;;;;;;;;;;;;;-144.99;100.00;52333.94;5075786;28;19963;-75
2022/09/25 07:44:04;;;;;;;;;;;;;;;-144.99;100.00;52325.81;5078049;28;20004;-72
2022/09/25 07:46:31;;;;;;;;;;;;;;;-144.99;100.00;52276.88;5073102;28;19940;-75
2022/09/25 07:48:57;;;;;;;;;;;;;;;-144.99;100.00;52313.56;5072815;28;19957;-74
2022/09/25 07:51:25;;;;;;;;;;;;;;;-144.99;100.00;52301.34;5087091;28;19940;-74
2022/09/25 07:53:51;;;;;;;;;;;;;;;-144.99;100.00;52305.41;5073211;28;19984;-73
2022/09/25 07:56:18;;;;;;;;;;;;;;;-144.99;100.00;52329.88;5079072;28;19947;-74
2022/09/25 07:58:45;;;;;;;;;;;;;;;-144.99;100.00;52315.59;5084683;28;19987;-74
2022/09/25 08:01:13;;;;;;;;;;;;;;;-144.99;100.00;52313.56;5090273;28;19977;-74
2022/09/25 08:03:39;;;;;;;;;;;;;;;-144.99;100.00;52342.09;5075393;28;19962;-75
2022/09/25 08:06:08;;;;;;;;;;;;;;;-144.99;100.00;52329.88;5090238;28;20039;-73
2022/09/25 08:08:35;;;;;;;;;;;;;;;-144.99;100.00;52276.88;5100534;28;19968;-74
2022/09/25 08:11:02;;;;;;;;;;;;;;;-144.99;100.00;52342.09;5104225;28;19953;-74
2022/09/25 08:13:29;;;;;;;;;;;;;;;-144.99;100.00;52366.56;5102728;28;20248;-74
2022/09/25 08:15:55;;;;;;;;;;;;;;;-144.99;100.00;52327.84;5103051;28;19948;-74
2022/09/25 08:18:23;;;;;;;;;;;;;;;-144.99;100.00;52333.94;5084283;28;20005;-75
2022/09/25 08:20:49;;;;;;;;;;;;;;;-144.99;100.00;52358.41;5089648;28;19928;-75
2022/09/25 08:23:16;;;;;;;;;;;;;;;-144.99;100.00;52333.94;5087237;28;20318;-75
2022/09/25 08:25:42;;;;;;;;;;;;;;;-144.99;100.00;52295.22;5089907;28;19949;-73
2022/09/25 08:28:08;;;;;;;;;;;;;;;-144.99;100.00;52321.72;5089538;28;19972;-75
2022/09/25 08:30:37;;;;;;;;;;;;;;;-144.99;100.00;52321.72;5090703;28;19965;-74
2022/09/25 08:33:03;;;;;;;;;;;;;;;-144.99;100.00;52309.50;5106383;28;20041;-75
2022/09/25 08:35:31;;;;;;;;;;;;;;;-144.99;100.00;52325.81;5105145;28;19927;-74
2022/09/25 08:37:57;;;;;;;;;;;;;;;-144.99;100.00;52338.03;5077406;28;19998;-73
2022/09/25 08:40:26;;;;;;;;;;;;;;;-144.99;100.00;52329.88;5089045;28;19977;-73
2022/09/25 08:42:53;;;;;;;;;;;;;;;-144.99;100.00;52309.50;5074589;28;19928;-74
2022/09/25 08:51:04;;;;;;;;;;;;;;;-144.99;100.00;52321.72;5038916;28;20031;-73
2022/09/25 08:53:31;;;;;;;;;;;;;;;-144.99;100.00;52329.88;5075659;28;20368;-74
2022/09/25 08:58:44;;;;;;;;;;;;;;;-144.99;100.00;52268.72;5075398;28;20452;-76
2022/09/25 09:01:12;;;;;;;;;;;;;;;-144.99;100.00;52327.84;5069925;28;19929;-73
2022/09/25 09:03:43;;;;;;;;;;;;;;;-144.99;100.00;52325.81;5087176;28;19947;-73
2022/09/25 09:06:14;;;;;;;;;;;;;;;-144.99;100.00;52309.50;5086305;28;19954;-76
2022/09/25 09:08:41;;;;;;;;;;;;;;;-144.99;100.00;52307.47;5093305;28;20059;-76
2022/09/25 09:11:11;;;;;;;;;;;;;;;-144.99;100.00;52317.66;5095210;28;19947;-78
2022/09/25 09:13:42;;;;;;;;;;;;;;;-144.99;100.00;52309.50;5111119;28;20017;-79
2022/09/25 09:16:11;;;;;;;;;;;;;;;-144.99;100.00;52333.94;5097396;28;19927;-78
2022/09/25 09:18:38;;;;;;;;;;;;;;;-144.99;100.00;52305.41;5106877;28;19958;-80
2022/09/25 09:21:10;;;;;;;;;;;;;;;-144.99;100.00;52293.19;5113589;28;19965;-79
2022/09/25 09:23:42;;;;;;;;;;;;;;;-144.99;100.00;52270.78;5108357;28;19947;-75
2022/09/25 09:26:13;;;;;;;;;;;;;;;-144.99;100.00;52333.94;5099833;28;19930;-80
2022/09/25 09:28:50;;;;;;;;;;;;;;;-144.99;100.00;52317.66;5107188;28;20038;-79
2022/09/25 09:31:20;;;;;;;;;;;;;;;-144.99;100.00;52309.50;5103035;28;20032;-77
2022/09/25 09:33:52;;;;;;;;;;;;;;;-144.99;100.00;52291.16;5108154;28;19967;-79
2022/09/25 09:36:23;;;;;;;;;;;;;;;-144.99;100.00;52321.72;5110556;27;20139;-79
2022/09/25 09:38:56;;;;;;;;;;;;;;;-144.99;100.00;52325.81;5088927;28;19981;-76
2022/09/25 09:41:28;;;;;;;;;;;;;;;-144.99;100.00;52285.03;5082058;28;20443;-75
2022/09/25 09:44:00;;;;;;;;;;;;;;;-144.99;100.00;52268.72;5089812;28;19954;-76
2022/09/25 09:46:32;;;;;;;;;;;;;;;-144.99;100.00;52327.84;5092066;28;19946;-77
2022/09/25 09:49:05;;;;;;;;;;;;;;;-144.99;100.00;52301.34;5091816;28;19980;-79
2022/09/25 09:51:33;;;;;;;;;;;;;;;-144.99;100.00;52317.66;5088831;28;20222;-77
2022/09/25 09:54:03;;;;;;;;;;;;;;;-144.99;100.00;52297.25;5070874;28;19945;-78
2022/09/25 09:56:31;;;;;;;;;;;;;;;-144.99;100.00;52317.66;5077290;28;19942;-77
2022/09/25 09:59:00;;;;;;;;;;;;;;;-144.99;100.00;52325.81;5091916;28;19966;-78
2022/09/25 10:01:29;;;;;;;;;;;;;;;-144.99;100.00;52325.81;5096738;28;19994;-79
2022/09/25 10:04:02;;;;;;;;;;;;;;;-144.99;100.00;52313.56;5099898;28;19981;-80
2022/09/25 10:06:30;;;;;;;;;;;;;;;-144.99;100.00;52305.41;5098282;28;19944;-78
2022/09/25 10:08:57;;;;;;;;;;;;;;;-144.99;100.00;52338.03;5098454;22;21543;-73
2022/09/25 10:11:25;;;;;;;;;;;;;;;-144.99;100.00;52333.94;5082205;28;19936;-74
2022/09/25 10:13:53;;;;;;;;;;;;;;;-144.99;100.00;52333.94;5088056;28;19941;-76
2022/09/25 10:16:21;;;;;;;;;;;;;;;-144.99;100.00;52340.06;5083911;28;19940;-74
2022/09/25 10:18:49;;;;;;;;;;;;;;;-144.99;100.00;52315.59;5074609;28;19970;-74
2022/09/25 10:21:17;;;;;;;;;;;;;;;-144.99;100.00;52313.56;5083217;28;19970;-74
2022/09/25 10:23:48;;;;;;;;;;;;;;;-144.99;100.00;52301.34;5088221;28;19970;-73
2022/09/25 10:26:26;;;;;;;;;;;;;;;-144.99;100.00;52309.50;4383513;28;10000756;-74
2022/09/25 10:28:56;;;;;;;;;;;;;;;-144.99;100.00;52307.47;5067036;28;20811;-74
2022/09/25 10:31:23;;;;;;;;;;;;;;;-144.99;100.00;52313.56;5070521;28;20034;-74
2022/09/25 10:33:59;;;;;;;;;;;;;;;-144.99;100.00;52301.34;5066136;28;19947;-74
2022/09/25 10:36:30;;;;;;;;;;;;;;;-144.99;100.00;52285.03;5067215;28;19942;-74
2022/09/25 10:38:57;;;;;;;;;;;;;;;-144.99;100.00;52305.41;5064342;28;20399;-74
2022/09/25 10:41:25;;;;;;;;;;;;;;;-144.99;100.00;52333.94;5067463;28;20316;-74
2022/09/25 10:43:53;;;;;;;;;;;;;;;-144.99;100.00;52325.81;5078641;28;19961;-74
2022/09/25 10:50:09;;;;;;;;;;;;;;;-144.99;100.00;52338.03;5067640;28;20064;-74
2022/09/25 10:52:04;;;;;;;;;;;;;;;-144.99;100.00;52309.50;5078925;28;20275;-74
2022/09/25 10:54:30;;;;;;;;;;;;;;;-144.99;100.00;52309.50;5065231;28;20001;-74
2022/09/25 10:56:58;;;;;;;;;;;;;;;-144.99;100.00;52289.13;5078069;28;19975;-74
2022/09/25 10:59:25;;;;;;;;;;;;;;;-144.99;100.00;52313.56;5076421;28;19997;-74
2022/09/25 11:01:53;;;;;;;;;;;;;;;-144.99;100.00;52321.72;5071907;28;19994;-75
2022/09/25 11:04:21;;;;;;;;;;;;;;;-144.99;100.00;52313.56;5067031;28;19986;-74
2022/09/25 11:06:51;;;;;;;;;;;;;;;-144.99;100.00;52338.03;5074138;28;19944;-73
2022/09/25 11:09:18;;;;;;;;;;;;;;;-144.99;100.00;52289.13;5067136;28;19974;-75
2022/09/25 11:11:48;;;;;;;;;;;;;;;-144.99;100.00;52317.66;5065530;28;19946;-74
2022/09/25 11:14:21;;;;;;;;;;;;;;;-144.99;100.00;52336.00;5065818;28;19968;-74
2022/09/25 11:16:50;;;;;;;;;;;;;;;-144.99;100.00;52321.72;5082351;28;20313;-75
2022/09/25 11:19:19;;;;;;;;;;;;;;;-144.99;100.00;52342.09;5086284;28;19960;-74
2022/09/25 11:21:55;;;;;;;;;;;;;;;-144.99;100.00;52344.16;5086559;28;19999;-74
2022/09/25 11:24:24;;;;;;;;;;;;;;;-144.99;100.00;52321.72;5077012;28;20055;-75
2022/09/25 11:26:54;;;;;;;;;;;;;;;-144.99;100.00;52329.88;5070189;28;19948;-74
2022/09/25 11:29:24;;;;;;;;;;;;;;;-144.99;100.00;52342.09;5070556;28;20449;-74
2022/09/25 11:31:52;;;;;;;;;;;;;;;-144.99;100.00;52317.66;5065876;28;19965;-74
2022/09/25 11:34:32;;;;;;;;;;;;;;;-144.99;100.00;52315.59;5066753;28;19977;-73
2022/09/25 11:37:02;;;;;;;;;;;;;;;-144.99;100.00;52289.13;5063234;28;19990;-73
2022/09/25 11:42:18;;;;;;;;;;;;;;;-144.99;100.00;52301.34;5068967;28;20415;-74
2022/09/25 11:44:56;;;;;;;;;;;;;;;-144.99;100.00;52293.19;5071121;28;20334;-74
2022/09/25 11:47:26;;;;;;;;;;;;;;;-144.99;100.00;52313.56;5065811;28;19943;-75
2022/09/25 11:49:53;;;;;;;;;;;;;;;-144.99;100.00;52293.19;5074484;28;20441;-75
2022/09/25 11:52:26;;;;;;;;;;;;;;;-144.99;100.00;52356.38;5081251;28;19940;-72
2022/09/25 11:55:13;;;;;;;;;;;;;;;-144.99;100.00;52305.41;5071815;28;19943;-74
2022/09/25 11:57:48;;;;;;;;;;;;;;;-144.99;100.00;52285.03;5066478;28;19957;-75
2022/09/25 12:00:19;;;;;;;;;;;;;;;-144.99;100.00;52289.13;5065889;28;20140;-74
2022/09/25 12:02:55;;;;;;;;;;;;;;;-144.99;100.00;52266.69;5064222;28;20392;-74
2022/09/25 12:05:31;;;;;;;;;;;;;;;-144.99;100.00;52301.34;5079364;28;19935;-74
2022/09/25 12:08:06;;;;;;;;;;;;;;;-144.99;100.00;52293.19;5064615;28;19942;-74
2022/09/25 12:10:38;;;;;;;;;;;;;;;-144.99;100.00;52297.25;5073759;28;19964;-74
2022/09/25 12:13:08;;;;;;;;;;;;;;;-144.99;100.00;52297.25;5066999;28;19945;-75
2022/09/25 12:15:43;;;;;;;;;;;;;;;-144.99;100.00;52264.66;5071513;28;20059;-75
2022/09/25 12:18:13;;;;;;;;;;;;;;;-144.99;100.00;52244.28;5070814;28;19944;-73
2022/09/25 12:20:42;;;;;;;;;;;;;;;-144.99;100.00;52301.34;5070613;28;19955;-75
2022/09/25 12:23:14;;;;;;;;;;;;;;;-144.99;99.82;52325.81;5063104;28;19929;-73
2022/09/25 12:25:55;;;;;;;;;;;;;;;-144.99;98.93;52340.06;5064075;28;20164;-73
2022/09/25 12:28:29;;;;;;;;;;;;;;;-144.99;97.38;52278.91;5062542;28;19967;-73
2022/09/25 12:31:01;;;;;;;;;;;;;;;-144.99;96.44;52323.75;5066443;28;19941;-73
2022/09/25 12:33:33;;;;;;;;;;;;;;;-144.99;97.48;52252.44;5068348;28;19966;-74
2022/09/25 12:36:03;;;;;;;;;;;;;;;-144.99;97.47;52362.50;5069316;28;19966;-73
2022/09/25 12:38:34;;;;;;;;;;;;;;;-144.99;96.56;52276.88;5068935;28;19971;-74
2022/09/25 12:41:06;;;;;;;;;;;;;;;-144.99;96.89;52230.00;5068302;28;20342;-73
2022/09/25 12:43:36;;;;;;;;;;;;;;;-144.99;96.16;52232.03;5067890;28;19951;-73
2022/09/25 12:46:08;;;;;;;;;;;;;;;-144.99;93.57;52232.03;5072602;28;20407;-74
2022/09/25 12:48:37;;;;;;;;;;;;;;;-144.99;92.85;52301.34;5070360;28;19957;-74
2022/09/25 12:51:07;;;;;;;;;;;;;;;-144.99;91.33;52301.34;5068525;28;20484;-73